createdAt,value
2022-09-12T00:01:06.103Z,17.50
2022-09-12T00:03:33.959Z,17.50
2022-09-12T00:06:08.906Z,17.50
2022-09-12T00:08:36.890Z,17.50
2022-09-12T00:11:12.485Z,17.40
2022-09-12T00:13:42.051Z,17.40
2022-09-12T00:16:16.514Z,17.40
2022-09-12T00:18:46.670Z,17.40
2022-09-12T00:21:17.346Z,17.40
2022-09-12T00:23:45.896Z,17.30
2022-09-12T00:26:13.963Z,17.30
2022-09-12T00:28:42.684Z,17.20
2022-09-12T00:31:13.083Z,17.20
2022-09-12T00:33:41.470Z,17.20
2022-09-12T00:36:11.311Z,17.20
2022-09-12T00:38:42.141Z,17.20
2022-09-12T00:41:15.971Z,17.20
2022-09-12T00:43:45.800Z,17.20
2022-09-12T00:46:24.829Z,17.10
2022-09-12T00:48:59.529Z,17.10
2022-09-12T00:51:28.326Z,17.10
2022-09-12T00:53:59.719Z,17.10
2022-09-12T00:56:28.425Z,17.10
2022-09-12T00:59:01.787Z,17.10
2022-09-12T01:01:32.583Z,17.10
2022-09-12T01:04:01.404Z,17.10
2022-09-12T01:06:33.460Z,17.10
2022-09-12T01:09:04.085Z,17.10
2022-09-12T01:11:33.038Z,17.10
2022-09-12T01:14:01.055Z,17.00
2022-09-12T01:16:29.848Z,17.00
2022-09-12T01:19:10.087Z,17.00
2022-09-12T01:21:49.602Z,16.90
2022-09-12T01:24:39.619Z,16.90
2022-09-12T01:27:33.346Z,16.90
2022-09-12T01:30:21.235Z,16.90
2022-09-12T01:33:12.030Z,16.80
2022-09-12T01:35:47.236Z,16.80
2022-09-12T01:38:23.822Z,16.80
2022-09-12T01:41:00.596Z,16.80
2022-09-12T01:43:35.701Z,16.70
2022-09-12T01:46:10.700Z,16.70
2022-09-12T01:48:46.739Z,16.60
2022-09-12T01:51:21.119Z,16.60
2022-09-12T01:53:52.700Z,16.60
2022-09-12T01:56:25.922Z,16.70
2022-09-12T01:58:59.150Z,16.70
2022-09-12T02:01:29.481Z,16.60
2022-09-12T02:04:04.852Z,16.60
2022-09-12T02:06:36.516Z,16.60
2022-09-12T02:09:08.965Z,16.50
2022-09-12T02:11:42.836Z,16.50
2022-09-12T02:14:14.970Z,16.50
2022-09-12T02:16:46.174Z,16.50
2022-09-12T02:19:18.361Z,16.60
2022-09-12T02:21:51.093Z,16.50
2022-09-12T02:24:19.814Z,16.50
2022-09-12T02:26:51.492Z,16.50
2022-09-12T02:29:19.477Z,16.50
2022-09-12T02:31:49.024Z,16.50
2022-09-12T02:34:38.949Z,16.50
2022-09-12T02:37:13.220Z,16.40
2022-09-12T02:39:45.191Z,16.40
2022-09-12T02:42:14.344Z,16.40
2022-09-12T02:44:42.813Z,16.30
2022-09-12T02:47:15.675Z,16.40
2022-09-12T02:49:45.104Z,16.40
2022-09-12T02:52:13.102Z,16.30
2022-09-12T02:54:41.184Z,16.30
2022-09-12T02:57:21.875Z,16.30
2022-09-12T02:59:52.584Z,16.30
2022-09-12T03:02:31.364Z,16.30
2022-09-12T03:05:19.856Z,16.30
2022-09-12T03:08:07.943Z,16.30
2022-09-12T03:10:43.996Z,16.30
2022-09-12T03:13:22.054Z,16.30
2022-09-12T03:15:58.164Z,16.30
2022-09-12T03:18:38.361Z,16.30
2022-09-12T03:21:13.872Z,16.20
2022-09-12T03:23:53.132Z,16.30
2022-09-12T03:26:26.785Z,16.30
2022-09-12T03:28:56.813Z,16.30
2022-09-12T03:31:24.653Z,16.20
2022-09-12T03:33:52.463Z,16.10
2022-09-12T03:36:25.441Z,16.00
2022-09-12T03:38:53.464Z,16.00
2022-09-12T03:41:21.508Z,15.90
2022-09-12T03:43:49.404Z,15.90
2022-09-12T03:46:17.250Z,15.90
2022-09-12T03:48:45.105Z,15.90
2022-09-12T03:51:13.185Z,15.90
2022-09-12T03:53:42.379Z,15.90
2022-09-12T03:56:11.758Z,15.90
2022-09-12T03:58:39.616Z,15.90
2022-09-12T04:01:12.739Z,16.00
2022-09-12T04:03:41.345Z,15.90
2022-09-12T04:06:10.897Z,15.90
2022-09-12T04:08:39.572Z,15.90
2022-09-12T04:11:11.406Z,15.90
2022-09-12T04:13:41.150Z,15.90
2022-09-12T04:16:09.692Z,15.80
2022-09-12T04:18:37.777Z,15.80
2022-09-12T04:21:06.934Z,15.60
2022-09-12T04:23:35.582Z,15.70
2022-09-12T04:26:06.382Z,15.60
2022-09-12T04:28:36.857Z,15.60
2022-09-12T04:31:06.853Z,15.60
2022-09-12T04:33:34.956Z,15.60
2022-09-12T04:36:07.548Z,15.50
2022-09-12T04:38:36.767Z,15.50
2022-09-12T04:41:11.959Z,15.50
2022-09-12T04:43:41.715Z,15.50
2022-09-12T04:46:10.957Z,15.50
2022-09-12T04:48:39.319Z,15.50
2022-09-12T04:51:13.371Z,15.50
2022-09-12T04:53:41.871Z,15.50
2022-09-12T04:56:12.136Z,15.50
2022-09-12T04:58:41.867Z,15.50
2022-09-12T05:01:11.816Z,15.50
2022-09-12T05:03:40.563Z,15.50
2022-09-12T05:06:10.437Z,15.50
2022-09-12T05:08:38.839Z,15.40
2022-09-12T05:11:08.372Z,15.30
2022-09-12T05:13:36.767Z,15.30
2022-09-12T05:16:07.982Z,15.30
2022-09-12T05:18:37.444Z,15.30
2022-09-12T05:21:08.013Z,15.30
2022-09-12T05:23:36.308Z,15.30
2022-09-12T05:26:06.291Z,15.40
2022-09-12T05:28:35.745Z,15.40
2022-09-12T05:31:06.294Z,15.40
2022-09-12T05:33:36.051Z,15.40
2022-09-12T05:36:04.667Z,15.40
2022-09-12T05:38:32.545Z,15.40
2022-09-12T05:41:06.200Z,15.30
2022-09-12T05:43:34.633Z,15.30
2022-09-12T05:46:05.300Z,15.30
2022-09-12T05:48:33.649Z,15.40
2022-09-12T05:51:02.790Z,15.40
2022-09-12T05:53:31.556Z,15.40
2022-09-12T05:56:07.310Z,15.30
2022-09-12T05:58:35.637Z,15.30
2022-09-12T06:01:08.102Z,15.30
2022-09-12T06:03:37.170Z,15.20
2022-09-12T06:06:06.389Z,15.20
2022-09-12T06:08:36.189Z,15.10
2022-09-12T06:11:05.650Z,15.10
2022-09-12T06:13:34.530Z,15.10
2022-09-12T06:16:09.143Z,15.10
2022-09-12T06:18:37.931Z,15.10
2022-09-12T06:21:06.635Z,15.10
2022-09-12T06:23:34.783Z,15.20
2022-09-12T06:26:03.070Z,15.30
2022-09-12T06:28:31.805Z,15.30
2022-09-12T06:31:05.348Z,15.30
2022-09-12T06:33:35.547Z,15.30
2022-09-12T06:36:10.155Z,15.30
2022-09-12T06:38:40.674Z,15.30
2022-09-12T06:41:10.616Z,15.40
2022-09-12T06:43:38.721Z,15.40
2022-09-12T06:46:07.582Z,15.40
2022-09-12T06:48:41.531Z,15.40
2022-09-12T06:51:13.246Z,15.50
2022-09-12T06:53:42.189Z,15.50
2022-09-12T06:56:13.507Z,15.70
2022-09-12T06:58:42.613Z,15.80
2022-09-12T07:01:12.431Z,15.90
2022-09-12T07:03:42.019Z,16.00
2022-09-12T07:06:12.377Z,16.10
2022-09-12T07:08:41.303Z,16.10
2022-09-12T07:11:14.709Z,16.20
2022-09-12T07:13:44.715Z,16.30
2022-09-12T07:16:18.705Z,16.50
2022-09-12T07:18:51.493Z,16.50
2022-09-12T07:21:19.837Z,16.60
2022-09-12T07:23:48.363Z,16.70
2022-09-12T07:26:17.413Z,16.70
2022-09-12T07:28:45.682Z,16.70
2022-09-12T07:31:15.964Z,16.80
2022-09-12T07:33:44.471Z,16.80
2022-09-12T07:36:16.130Z,16.90
2022-09-12T07:38:44.981Z,17.00
2022-09-12T07:41:13.715Z,17.00
2022-09-12T07:43:42.013Z,17.10
2022-09-12T07:46:10.873Z,17.50
2022-09-12T07:48:39.107Z,18.00
2022-09-12T07:51:08.889Z,18.40
2022-09-12T07:53:40.282Z,18.90
2022-09-12T07:56:10.259Z,19.30
2022-09-12T07:58:40.333Z,19.70
2022-09-12T08:01:09.841Z,20.00
2022-09-12T08:03:37.986Z,20.30
2022-09-12T08:06:06.795Z,20.70
2022-09-12T08:08:34.763Z,20.90
2022-09-12T08:11:06.661Z,21.20
2022-09-12T08:13:35.722Z,21.40
2022-09-12T08:16:05.988Z,21.50
2022-09-12T08:18:36.330Z,21.60
2022-09-12T08:21:06.021Z,21.70
2022-09-12T08:23:34.196Z,21.90
2022-09-12T08:26:06.341Z,22.00
2022-09-12T08:28:36.068Z,22.20
2022-09-12T08:31:05.316Z,22.20
2022-09-12T08:33:34.430Z,22.40
2022-09-12T08:36:06.474Z,22.80
2022-09-12T08:38:34.879Z,23.00
2022-09-12T08:41:11.120Z,23.20
2022-09-12T08:43:57.402Z,23.20
2022-09-12T08:46:30.079Z,23.30
2022-09-12T08:49:01.668Z,23.40
2022-09-12T08:51:30.561Z,23.60
2022-09-12T08:53:59.362Z,23.80
2022-09-12T08:56:31.767Z,24.00
2022-09-12T08:58:59.974Z,24.30
2022-09-12T09:01:32.831Z,24.40
2022-09-12T09:04:28.112Z,24.50
2022-09-12T09:07:16.811Z,24.60
2022-09-12T09:09:55.327Z,24.70
2022-09-12T09:12:34.026Z,24.80
2022-09-12T09:15:35.831Z,25.00
2022-09-12T09:18:07.421Z,25.10
2022-09-12T09:20:42.201Z,25.30
2022-09-12T09:23:15.937Z,25.40
2022-09-12T09:25:51.108Z,25.70
2022-09-12T09:28:24.487Z,25.80
2022-09-12T09:30:53.349Z,25.90
2022-09-12T09:33:26.292Z,26.00
2022-09-12T09:36:06.019Z,26.10
2022-09-12T09:38:44.943Z,26.30
2022-09-12T09:41:28.141Z,26.40
2022-09-12T09:43:57.933Z,26.50
2022-09-12T09:46:26.352Z,26.60
2022-09-12T09:48:54.780Z,26.80
2022-09-12T09:51:27.916Z,27.00
2022-09-12T09:54:01.688Z,27.10
2022-09-12T09:56:34.344Z,27.20
2022-09-12T09:59:12.785Z,27.20
2022-09-12T10:01:47.020Z,27.30
2022-09-12T10:04:23.434Z,27.30
2022-09-12T10:06:54.316Z,27.40
2022-09-12T10:09:25.456Z,27.40
2022-09-12T10:11:55.253Z,27.60
2022-09-12T10:14:42.749Z,27.80
2022-09-12T10:17:33.880Z,27.80
2022-09-12T10:20:21.502Z,28.00
2022-09-12T10:22:50.555Z,28.00
2022-09-12T10:25:20.461Z,27.90
2022-09-12T10:27:55.128Z,27.90
2022-09-12T10:30:26.037Z,27.90
2022-09-12T10:32:54.403Z,27.90
2022-09-12T10:35:23.936Z,28.00
2022-09-12T10:37:55.213Z,28.00
2022-09-12T10:40:25.816Z,28.10
2022-09-12T10:42:55.606Z,28.20
2022-09-12T10:45:28.970Z,28.30
2022-09-12T10:48:02.116Z,28.40
2022-09-12T10:50:37.329Z,28.60
2022-09-12T10:53:16.344Z,28.60
2022-09-12T10:55:56.928Z,28.70
2022-09-12T10:59:02.207Z,28.60
2022-09-12T11:01:40.152Z,28.60
2022-09-12T11:04:24.178Z,28.30
2022-09-12T11:07:11.901Z,27.70
2022-09-12T11:09:47.538Z,27.20
2022-09-12T11:12:26.248Z,26.80
2022-09-12T11:15:08.695Z,26.40
2022-09-12T11:17:48.198Z,26.10
2022-09-12T11:20:32.634Z,25.90
2022-09-12T11:23:36.448Z,25.80
2022-09-12T11:26:15.211Z,25.60
2022-09-12T11:28:53.440Z,25.50
2022-09-12T11:31:41.709Z,25.40
2022-09-12T11:34:12.660Z,25.30
2022-09-12T11:36:47.409Z,25.30
2022-09-12T11:39:16.801Z,25.20
2022-09-12T11:41:48.491Z,25.20
2022-09-12T11:44:22.973Z,25.10
2022-09-12T11:46:52.036Z,25.10
2022-09-12T11:49:34.794Z,25.10
2022-09-12T11:52:08.069Z,25.10
2022-09-12T11:54:44.684Z,25.10
2022-09-12T11:57:19.003Z,25.10
2022-09-12T11:59:51.057Z,25.10
2022-09-12T12:02:28.035Z,25.10
2022-09-12T12:05:05.887Z,25.10
2022-09-12T12:07:45.389Z,25.20
2022-09-12T12:10:30.986Z,25.20
2022-09-12T12:13:00.267Z,25.30
2022-09-12T12:15:29.203Z,25.50
2022-09-12T12:18:06.979Z,25.60
2022-09-12T12:20:37.041Z,25.90
2022-09-12T12:23:05.306Z,26.10
2022-09-12T12:25:41.666Z,26.30
2022-09-12T12:28:09.599Z,26.60
2022-09-12T12:31:05.627Z,26.90
2022-09-12T12:33:54.572Z,27.10
2022-09-12T12:36:38.410Z,27.30
2022-09-12T12:39:49.780Z,27.40
2022-09-12T12:43:03.799Z,27.60
2022-09-12T12:46:13.408Z,27.70
2022-09-12T12:48:59.888Z,27.80
2022-09-12T12:51:33.967Z,28.00
2022-09-12T12:54:03.662Z,28.00
2022-09-12T12:56:38.951Z,28.10
2022-09-12T12:59:17.867Z,28.00
2022-09-12T13:01:52.807Z,28.10
2022-09-12T13:04:25.873Z,28.30
2022-09-12T13:07:07.172Z,28.40
2022-09-12T13:09:44.137Z,28.50
2022-09-12T13:12:23.476Z,28.60
2022-09-12T13:14:58.226Z,28.70
2022-09-12T13:17:34.427Z,28.90
2022-09-12T13:20:34.567Z,29.10
2022-09-12T13:23:03.792Z,29.20
2022-09-12T13:25:34.319Z,29.30
2022-09-12T13:28:07.817Z,29.40
2022-09-12T13:30:37.652Z,29.50
2022-09-12T13:33:14.062Z,29.50
2022-09-12T13:35:56.098Z,29.60
2022-09-12T13:38:35.059Z,29.70
2022-09-12T13:41:21.253Z,29.80
2022-09-12T13:43:49.661Z,29.80
2022-09-12T13:46:21.829Z,29.70
2022-09-12T13:48:49.868Z,29.70
2022-09-12T13:51:24.705Z,29.60
2022-09-12T13:53:57.404Z,29.50
2022-09-12T13:56:25.302Z,29.10
2022-09-12T13:58:56.373Z,28.80
2022-09-12T14:01:25.596Z,28.40
2022-09-12T14:04:12.486Z,28.20
2022-09-12T14:06:49.661Z,27.90
2022-09-12T14:09:33.695Z,27.70
2022-09-12T14:12:02.156Z,27.50
2022-09-12T14:14:33.781Z,27.30
2022-09-12T14:17:03.127Z,27.20
2022-09-12T14:19:34.459Z,27.10
2022-09-12T14:22:02.536Z,26.90
2022-09-12T14:24:32.891Z,26.90
2022-09-12T14:27:01.130Z,26.70
2022-09-12T14:29:29.509Z,26.70
2022-09-12T14:32:04.698Z,26.60
2022-09-12T14:34:32.583Z,26.50
2022-09-12T14:37:00.820Z,26.50
2022-09-12T14:39:34.290Z,26.40
2022-09-12T14:42:05.263Z,26.30
2022-09-12T14:44:34.506Z,26.30
2022-09-12T14:47:14.343Z,26.30
2022-09-12T14:49:42.661Z,26.20
2022-09-12T14:52:25.856Z,26.10
2022-09-12T14:55:02.692Z,26.10
2022-09-12T14:57:38.799Z,26.10
2022-09-12T15:00:20.722Z,26.10
2022-09-12T15:02:49.646Z,26.10
2022-09-12T15:05:23.046Z,26.10
2022-09-12T15:08:00.269Z,26.10
2022-09-12T15:10:32.315Z,26.10
2022-09-12T15:13:18.940Z,26.10
2022-09-12T15:15:48.796Z,26.10
2022-09-12T15:18:16.982Z,26.00
2022-09-12T15:20:48.602Z,26.00
2022-09-12T15:23:20.296Z,26.00
2022-09-12T15:25:50.154Z,26.00
2022-09-12T15:28:20.565Z,26.00
2022-09-12T15:30:51.169Z,26.00
2022-09-12T15:33:20.911Z,26.00
2022-09-12T15:35:48.770Z,26.00
2022-09-12T15:38:16.684Z,25.90
2022-09-12T15:40:45.789Z,25.90
2022-09-12T15:43:15.014Z,25.90
2022-09-12T15:45:44.512Z,25.90
2022-09-12T15:48:13.772Z,25.90
2022-09-12T15:50:42.340Z,25.80
2022-09-12T15:53:15.060Z,25.80
2022-09-12T15:55:43.600Z,25.80
2022-09-12T15:58:11.736Z,25.80
2022-09-12T16:00:41.127Z,25.80
2022-09-12T16:03:21.285Z,25.80
2022-09-12T16:05:49.238Z,25.80
2022-09-12T16:08:17.074Z,25.80
2022-09-12T16:10:45.333Z,25.70
2022-09-12T16:13:13.195Z,25.70
2022-09-12T16:15:42.433Z,25.70
2022-09-12T16:18:10.312Z,25.70
2022-09-12T16:20:40.200Z,25.70
2022-09-12T16:23:08.327Z,25.70
2022-09-12T16:25:37.539Z,25.60
2022-09-12T16:28:05.699Z,25.60
2022-09-12T16:30:33.591Z,25.60
2022-09-12T16:33:02.991Z,25.50
2022-09-12T16:35:33.114Z,25.50
2022-09-12T16:38:01.633Z,25.50
2022-09-12T16:40:29.687Z,25.50
2022-09-12T16:42:57.613Z,25.40
2022-09-12T16:45:25.504Z,25.40
2022-09-12T16:47:53.357Z,25.30
2022-09-12T16:50:22.614Z,25.30
2022-09-12T16:52:50.542Z,25.30
2022-09-12T16:55:18.613Z,25.30
2022-09-12T16:57:47.493Z,25.20
2022-09-12T17:00:15.960Z,25.20
2022-09-12T17:02:44.439Z,25.10
2022-09-12T17:05:12.299Z,25.10
2022-09-12T17:07:41.512Z,25.00
2022-09-12T17:10:10.030Z,25.00
2022-09-12T17:12:37.889Z,24.90
2022-09-12T17:15:06.589Z,24.80
2022-09-12T17:17:34.419Z,24.80
2022-09-12T17:20:02.613Z,24.70
2022-09-12T17:22:30.512Z,24.60
2022-09-12T17:24:59.735Z,24.50
2022-09-12T17:27:27.625Z,24.40
2022-09-12T17:29:55.596Z,24.30
2022-09-12T17:32:23.558Z,24.20
2022-09-12T17:34:51.412Z,24.10
2022-09-12T17:37:19.286Z,24.10
2022-09-12T17:39:47.631Z,24.00
2022-09-12T17:42:16.895Z,23.90
2022-09-12T17:44:44.753Z,23.90
2022-09-12T17:47:12.619Z,23.90
2022-09-12T17:49:40.574Z,23.90
2022-09-12T17:52:08.429Z,23.90
2022-09-12T17:54:36.318Z,23.80
2022-09-12T17:57:05.002Z,23.80
2022-09-12T17:59:36.263Z,23.80
2022-09-12T18:02:12.681Z,23.70
2022-09-12T18:04:41.178Z,23.70
2022-09-12T18:07:09.358Z,23.70
2022-09-12T18:09:37.331Z,23.60
2022-09-12T18:12:05.806Z,23.60
2022-09-12T18:14:35.771Z,23.50
2022-09-12T18:17:04.487Z,23.50
2022-09-12T18:19:32.384Z,23.40
2022-09-12T18:22:00.292Z,23.40
2022-09-12T18:24:28.243Z,23.40
2022-09-12T18:26:57.519Z,23.30
2022-09-12T18:29:27.643Z,23.30
2022-09-12T18:31:57.243Z,23.30
2022-09-12T18:34:25.067Z,23.20
2022-09-12T18:36:54.825Z,23.10
2022-09-12T18:39:26.841Z,23.10
2022-09-12T18:41:55.633Z,23.10
2022-09-12T18:44:23.511Z,23.00
2022-09-12T18:46:51.409Z,23.00
2022-09-12T18:49:21.045Z,22.90
2022-09-12T18:51:48.900Z,22.90
2022-09-12T18:54:17.774Z,22.80
2022-09-12T18:56:45.836Z,22.80
2022-09-12T18:59:14.815Z,22.70
2022-09-12T19:01:43.881Z,22.70
2022-09-12T19:04:13.202Z,22.60
2022-09-12T19:06:43.958Z,22.60
2022-09-12T19:09:13.917Z,22.50
2022-09-12T19:11:48.751Z,22.50
2022-09-12T19:14:17.051Z,22.40
2022-09-12T19:16:45.150Z,22.40
2022-09-12T19:19:13.014Z,22.40
2022-09-12T19:21:42.833Z,22.40
2022-09-12T19:24:11.621Z,22.40
2022-09-12T19:26:40.163Z,22.30
2022-09-12T19:29:08.952Z,22.30
2022-09-12T19:31:36.901Z,22.30
2022-09-12T19:34:06.950Z,22.30
2022-09-12T19:36:50.689Z,22.30
2022-09-12T19:39:20.559Z,22.20
2022-09-12T19:41:49.182Z,22.10
2022-09-12T19:44:19.090Z,22.10
2022-09-12T19:46:47.034Z,22.00
2022-09-12T19:49:15.073Z,22.00
2022-09-12T19:51:43.799Z,22.00
2022-09-12T19:54:11.755Z,22.00
2022-09-12T19:56:40.971Z,21.90
2022-09-12T19:59:09.603Z,21.90
2022-09-12T20:01:37.933Z,21.90
2022-09-12T20:04:06.462Z,21.80
2022-09-12T20:06:34.376Z,21.80
2022-09-12T20:09:02.264Z,21.70
2022-09-12T20:11:30.315Z,21.70
2022-09-12T20:13:59.462Z,21.60
2022-09-12T20:16:29.380Z,21.60
2022-09-12T20:18:59.590Z,21.50
2022-09-12T20:21:31.746Z,21.40
2022-09-12T20:24:04.842Z,21.30
2022-09-12T20:26:33.076Z,21.30
2022-09-12T20:29:02.563Z,21.30
2022-09-12T20:31:31.087Z,21.20
2022-09-12T20:33:59.229Z,21.30
2022-09-12T20:36:27.524Z,21.30
2022-09-12T20:38:57.737Z,21.30
2022-09-12T20:41:26.744Z,21.30
2022-09-12T20:43:56.363Z,21.20
2022-09-12T20:46:27.061Z,21.30
2022-09-12T20:48:55.503Z,21.20
2022-09-12T20:51:24.554Z,21.20
2022-09-12T20:53:55.048Z,21.20
2022-09-12T20:56:23.599Z,21.10
2022-09-12T20:58:51.460Z,21.10
2022-09-12T21:01:19.391Z,21.00
2022-09-12T21:03:49.356Z,21.00
2022-09-12T21:06:18.478Z,21.00
2022-09-12T21:08:47.455Z,20.90
2022-09-12T21:11:15.716Z,20.80
2022-09-12T21:13:43.728Z,20.80
2022-09-12T21:16:14.057Z,20.80
2022-09-12T21:18:42.687Z,20.80
2022-09-12T21:21:13.543Z,20.80
2022-09-12T21:23:41.543Z,20.70
2022-09-12T21:26:09.743Z,20.80
2022-09-12T21:28:37.677Z,20.80
2022-09-12T21:31:05.790Z,20.70
2022-09-12T21:33:33.664Z,20.70
2022-09-12T21:36:03.841Z,20.70
2022-09-12T21:38:33.725Z,20.70
2022-09-12T21:41:09.052Z,20.60
2022-09-12T21:43:37.827Z,20.60
2022-09-12T21:46:07.178Z,20.50
2022-09-12T21:48:35.395Z,20.50
2022-09-12T21:51:03.441Z,20.40
2022-09-12T21:53:33.011Z,20.50
2022-09-12T21:56:04.844Z,20.40
2022-09-12T21:58:32.698Z,20.50
2022-09-12T22:01:01.266Z,20.50
2022-09-12T22:03:29.716Z,20.50
2022-09-12T22:06:02.460Z,20.40
2022-09-12T22:08:33.107Z,20.30
2022-09-12T22:11:02.190Z,20.30
2022-09-12T22:13:31.387Z,20.20
2022-09-12T22:16:00.592Z,20.20
2022-09-12T22:18:28.521Z,20.10
2022-09-12T22:21:03.960Z,20.10
2022-09-12T22:23:50.489Z,20.10
2022-09-12T22:26:18.658Z,20.10
2022-09-12T22:28:47.150Z,20.00
2022-09-12T22:31:16.334Z,20.00
2022-09-12T22:33:45.524Z,20.00
2022-09-12T22:36:13.564Z,20.10
2022-09-12T22:38:42.844Z,20.10
2022-09-12T22:41:13.025Z,20.00
2022-09-12T22:43:40.928Z,20.00
2022-09-12T22:46:09.597Z,19.90
2022-09-12T22:48:37.703Z,19.80
2022-09-12T22:51:06.289Z,19.80
2022-09-12T22:53:34.853Z,19.70
2022-09-12T22:56:05.056Z,19.60
2022-09-12T22:58:33.258Z,19.50
2022-09-12T23:01:01.152Z,19.60
2022-09-12T23:03:29.061Z,19.60
2022-09-12T23:05:56.922Z,19.60
2022-09-12T23:08:27.298Z,19.60
2022-09-12T23:11:03.099Z,19.70
2022-09-12T23:13:31.023Z,19.60
2022-09-12T23:15:59.537Z,19.70
2022-09-12T23:18:28.054Z,19.60
2022-09-12T23:21:00.620Z,19.50
2022-09-12T23:23:29.033Z,19.40
2022-09-12T23:26:06.172Z,19.40
2022-09-12T23:28:34.467Z,19.40
2022-09-12T23:31:02.645Z,19.40
2022-09-12T23:33:31.630Z,19.40
2022-09-12T23:36:01.250Z,19.40
2022-09-12T23:38:30.242Z,19.40
2022-09-12T23:40:58.156Z,19.40
2022-09-12T23:43:27.616Z,19.30
2022-09-12T23:45:55.458Z,19.30
2022-09-12T23:48:23.388Z,19.20
2022-09-12T23:50:51.683Z,19.10
2022-09-12T23:53:20.062Z,19.20
2022-09-12T23:55:48.144Z,19.20
2022-09-12T23:58:16.504Z,19.20
